sensor_id;sensor_type;location;lat;lon;timestamp;P1;durP1;ratioP1;P2;durP2;ratioP2
8704;SDS011;4389;41.932;25.904;2023-03-01T00:00:00;1.83;;;1.73;;
8704;SDS011;4389;41.932;25.904;2023-03-01T00:02:28;2.27;;;2.07;;
8704;SDS011;4389;41.932;25.904;2023-03-01T00:04:55;2.10;;;1.87;;
8704;SDS011;4389;41.932;25.904;2023-03-01T00:07:23;2.90;;;2.07;;
8704;SDS011;4389;41.932;25.904;2023-03-01T00:09:50;2.67;;;2.03;;
8704;SDS011;4389;41.932;25.904;2023-03-01T00:12:17;1.90;;;1.80;;
8704;SDS011;4389;41.932;25.904;2023-03-01T00:14:44;1.90;;;1.50;;
8704;SDS011;4389;41.932;25.904;2023-03-01T00:17:10;2.47;;;2.00;;
8704;SDS011;4389;41.932;25.904;2023-03-01T00:19:37;2.20;;;2.00;;
8704;SDS011;4389;41.932;25.904;2023-03-01T00:22:05;3.60;;;2.00;;
8704;SDS011;4389;41.932;25.904;2023-03-01T00:24:33;1.87;;;1.77;;
8704;SDS011;4389;41.932;25.904;2023-03-01T00:27:00;2.23;;;2.00;;
8704;SDS011;4389;41.932;25.904;2023-03-01T00:29:27;3.60;;;2.23;;
8704;SDS011;4389;41.932;25.904;2023-03-01T00:31:54;2.17;;;1.97;;
8704;SDS011;4389;41.932;25.904;2023-03-01T00:34:21;1.83;;;1.73;;
8704;SDS011;4389;41.932;25.904;2023-03-01T00:36:47;2.73;;;2.27;;
8704;SDS011;4389;41.932;25.904;2023-03-01T00:39:14;2.70;;;2.30;;
8704;SDS011;4389;41.932;25.904;2023-03-01T00:41:43;2.90;;;2.30;;
8704;SDS011;4389;41.932;25.904;2023-03-01T00:44:10;6.27;;;2.50;;
8704;SDS011;4389;41.932;25.904;2023-03-01T00:46:38;2.63;;;2.43;;
8704;SDS011;4389;41.932;25.904;2023-03-01T00:49:05;3.23;;;2.87;;
8704;SDS011;4389;41.932;25.904;2023-03-01T00:51:31;3.03;;;2.63;;
8704;SDS011;4389;41.932;25.904;2023-03-01T00:53:59;2.87;;;2.67;;
8704;SDS011;4389;41.932;25.904;2023-03-01T00:56:28;3.20;;;2.90;;
8704;SDS011;4389;41.932;25.904;2023-03-01T00:58:57;3.93;;;2.93;;
8704;SDS011;4389;41.932;25.904;2023-03-01T01:01:25;3.00;;;2.80;;
8704;SDS011;4389;41.932;25.904;2023-03-01T01:03:56;4.87;;;3.00;;
8704;SDS011;4389;41.932;25.904;2023-03-01T01:06:24;3.23;;;2.83;;
8704;SDS011;4389;41.932;25.904;2023-03-01T01:08:52;4.60;;;3.03;;
8704;SDS011;4389;41.932;25.904;2023-03-01T01:11:21;4.37;;;3.90;;
8704;SDS011;4389;41.932;25.904;2023-03-01T01:13:49;6.23;;;5.63;;
8704;SDS011;4389;41.932;25.904;2023-03-01T01:16:17;9.47;;;8.43;;
8704;SDS011;4389;41.932;25.904;2023-03-01T01:18:45;17.20;;;14.47;;
8704;SDS011;4389;41.932;25.904;2023-03-01T01:21:13;14.40;;;12.17;;
8704;SDS011;4389;41.932;25.904;2023-03-01T01:23:42;13.47;;;12.07;;
8704;SDS011;4389;41.932;25.904;2023-03-01T01:26:10;4.73;;;4.27;;
8704;SDS011;4389;41.932;25.904;2023-03-01T01:28:38;5.20;;;4.70;;
8704;SDS011;4389;41.932;25.904;2023-03-01T01:31:05;4.10;;;3.80;;
8704;SDS011;4389;41.932;25.904;2023-03-01T01:33:34;4.83;;;4.33;;
8704;SDS011;4389;41.932;25.904;2023-03-01T01:36:01;4.37;;;3.97;;
8704;SDS011;4389;41.932;25.904;2023-03-01T01:38:28;4.07;;;3.67;;
8704;SDS011;4389;41.932;25.904;2023-03-01T01:40:54;3.40;;;3.10;;
8704;SDS011;4389;41.932;25.904;2023-03-01T01:43:22;4.47;;;3.70;;
8704;SDS011;4389;41.932;25.904;2023-03-01T01:45:51;4.63;;;4.13;;
8704;SDS011;4389;41.932;25.904;2023-03-01T01:48:23;3.80;;;3.50;;
8704;SDS011;4389;41.932;25.904;2023-03-01T01:51:07;4.57;;;4.00;;
8704;SDS011;4389;41.932;25.904;2023-03-01T01:53:38;4.90;;;3.60;;
8704;SDS011;4389;41.932;25.904;2023-03-01T01:56:07;5.23;;;4.23;;
8704;SDS011;4389;41.932;25.904;2023-03-01T01:58:38;4.00;;;3.50;;
8704;SDS011;4389;41.932;25.904;2023-03-01T02:01:06;4.13;;;3.60;;
8704;SDS011;4389;41.932;25.904;2023-03-01T02:03:33;4.00;;;3.30;;
8704;SDS011;4389;41.932;25.904;2023-03-01T02:06:12;3.70;;;3.40;;
8704;SDS011;4389;41.932;25.904;2023-03-01T02:08:43;5.43;;;3.77;;
8704;SDS011;4389;41.932;25.904;2023-03-01T02:11:12;3.80;;;3.40;;
8704;SDS011;4389;41.932;25.904;2023-03-01T02:13:41;4.07;;;3.67;;
8704;SDS011;4389;41.932;25.904;2023-03-01T02:16:09;4.37;;;3.37;;
8704;SDS011;4389;41.932;25.904;2023-03-01T02:18:36;5.00;;;3.57;;
8704;SDS011;4389;41.932;25.904;2023-03-01T02:21:11;4.00;;;3.30;;
8704;SDS011;4389;41.932;25.904;2023-03-01T02:23:55;3.53;;;3.23;;
8704;SDS011;4389;41.932;25.904;2023-03-01T02:26:25;4.93;;;3.33;;
8704;SDS011;4389;41.932;25.904;2023-03-01T02:29:00;4.03;;;3.60;;
8704;SDS011;4389;41.932;25.904;2023-03-01T02:31:27;4.60;;;3.80;;
8704;SDS011;4389;41.932;25.904;2023-03-01T02:34:11;3.27;;;2.97;;
8704;SDS011;4389;41.932;25.904;2023-03-01T02:36:40;4.50;;;3.37;;
8704;SDS011;4389;41.932;25.904;2023-03-01T02:39:12;3.63;;;3.33;;
8704;SDS011;4389;41.932;25.904;2023-03-01T02:41:44;4.77;;;3.90;;
8704;SDS011;4389;41.932;25.904;2023-03-01T02:44:14;3.83;;;3.40;;
8704;SDS011;4389;41.932;25.904;2023-03-01T02:46:42;3.90;;;3.50;;
8704;SDS011;4389;41.932;25.904;2023-03-01T02:49:21;4.37;;;3.30;;
8704;SDS011;4389;41.932;25.904;2023-03-01T02:51:52;3.97;;;3.20;;
8704;SDS011;4389;41.932;25.904;2023-03-01T02:54:39;3.27;;;2.93;;
8704;SDS011;4389;41.932;25.904;2023-03-01T02:57:10;3.70;;;3.10;;
8704;SDS011;4389;41.932;25.904;2023-03-01T02:59:39;3.30;;;3.00;;
8704;SDS011;4389;41.932;25.904;2023-03-01T03:02:07;3.77;;;3.30;;
8704;SDS011;4389;41.932;25.904;2023-03-01T03:04:45;4.93;;;3.13;;
8704;SDS011;4389;41.932;25.904;2023-03-01T03:07:12;4.63;;;4.00;;
8704;SDS011;4389;41.932;25.904;2023-03-01T03:09:39;7.23;;;4.27;;
8704;SDS011;4389;41.932;25.904;2023-03-01T03:12:06;4.10;;;3.70;;
8704;SDS011;4389;41.932;25.904;2023-03-01T03:14:32;4.30;;;3.13;;
8704;SDS011;4389;41.932;25.904;2023-03-01T03:17:01;4.07;;;3.57;;
8704;SDS011;4389;41.932;25.904;2023-03-01T03:19:31;6.43;;;5.83;;
8704;SDS011;4389;41.932;25.904;2023-03-01T03:21:58;10.90;;;10.00;;
8704;SDS011;4389;41.932;25.904;2023-03-01T03:24:25;7.77;;;7.03;;
8704;SDS011;4389;41.932;25.904;2023-03-01T03:26:52;6.53;;;5.80;;
8704;SDS011;4389;41.932;25.904;2023-03-01T03:29:19;5.47;;;3.80;;
8704;SDS011;4389;41.932;25.904;2023-03-01T03:31:46;6.13;;;5.63;;
8704;SDS011;4389;41.932;25.904;2023-03-01T03:34:14;7.57;;;4.53;;
8704;SDS011;4389;41.932;25.904;2023-03-01T03:36:43;4.77;;;4.37;;
8704;SDS011;4389;41.932;25.904;2023-03-01T03:39:09;10.27;;;6.63;;
8704;SDS011;4389;41.932;25.904;2023-03-01T03:41:36;3.93;;;2.80;;
8704;SDS011;4389;41.932;25.904;2023-03-01T03:44:03;9.30;;;2.70;;
8704;SDS011;4389;41.932;25.904;2023-03-01T03:46:30;3.00;;;2.70;;
8704;SDS011;4389;41.932;25.904;2023-03-01T03:48:57;3.93;;;2.63;;
8704;SDS011;4389;41.932;25.904;2023-03-01T03:51:25;3.53;;;2.53;;
8704;SDS011;4389;41.932;25.904;2023-03-01T03:53:52;4.10;;;2.70;;
8704;SDS011;4389;41.932;25.904;2023-03-01T03:56:19;2.93;;;2.30;;
8704;SDS011;4389;41.932;25.904;2023-03-01T03:58:46;3.23;;;2.93;;
8704;SDS011;4389;41.932;25.904;2023-03-01T04:01:13;3.23;;;2.93;;
8704;SDS011;4389;41.932;25.904;2023-03-01T04:03:40;4.90;;;2.60;;
8704;SDS011;4389;41.932;25.904;2023-03-01T04:06:11;3.00;;;2.70;;
8704;SDS011;4389;41.932;25.904;2023-03-01T04:08:40;4.70;;;2.60;;
8704;SDS011;4389;41.932;25.904;2023-03-01T04:11:07;3.13;;;2.77;;
8704;SDS011;4389;41.932;25.904;2023-03-01T04:13:53;3.17;;;2.87;;
8704;SDS011;4389;41.932;25.904;2023-03-01T04:16:22;6.23;;;5.73;;
8704;SDS011;4389;41.932;25.904;2023-03-01T04:18:49;3.20;;;2.93;;
8704;SDS011;4389;41.932;25.904;2023-03-01T04:21:17;5.07;;;4.00;;
8704;SDS011;4389;41.932;25.904;2023-03-01T04:23:46;3.63;;;2.97;;
8704;SDS011;4389;41.932;25.904;2023-03-01T04:26:13;3.00;;;2.70;;
8704;SDS011;4389;41.932;25.904;2023-03-01T04:28:41;4.77;;;4.37;;
8704;SDS011;4389;41.932;25.904;2023-03-01T04:31:11;3.70;;;3.40;;
8704;SDS011;4389;41.932;25.904;2023-03-01T04:33:39;4.93;;;4.53;;
8704;SDS011;4389;41.932;25.904;2023-03-01T04:36:08;5.90;;;5.30;;
8704;SDS011;4389;41.932;25.904;2023-03-01T04:38:35;6.87;;;6.27;;
8704;SDS011;4389;41.932;25.904;2023-03-01T04:41:05;7.10;;;6.53;;
8704;SDS011;4389;41.932;25.904;2023-03-01T04:43:33;3.97;;;3.60;;
8704;SDS011;4389;41.932;25.904;2023-03-01T04:46:00;6.90;;;3.83;;
8704;SDS011;4389;41.932;25.904;2023-03-01T04:48:28;4.67;;;3.80;;
8704;SDS011;4389;41.932;25.904;2023-03-01T04:50:56;4.27;;;3.90;;
8704;SDS011;4389;41.932;25.904;2023-03-01T04:53:24;4.17;;;3.57;;
8704;SDS011;4389;41.932;25.904;2023-03-01T04:55:51;5.10;;;4.60;;
8704;SDS011;4389;41.932;25.904;2023-03-01T04:58:19;3.03;;;2.60;;
8704;SDS011;4389;41.932;25.904;2023-03-01T05:00:46;4.60;;;3.90;;
8704;SDS011;4389;41.932;25.904;2023-03-01T05:03:13;3.80;;;3.50;;
8704;SDS011;4389;41.932;25.904;2023-03-01T05:05:43;2.87;;;2.50;;
8704;SDS011;4389;41.932;25.904;2023-03-01T05:08:12;5.70;;;2.40;;
8704;SDS011;4389;41.932;25.904;2023-03-01T05:10:43;2.60;;;2.40;;
8704;SDS011;4389;41.932;25.904;2023-03-01T05:13:12;6.40;;;2.50;;
8704;SDS011;4389;41.932;25.904;2023-03-01T05:15:41;2.93;;;2.17;;
8704;SDS011;4389;41.932;25.904;2023-03-01T05:18:08;3.57;;;2.47;;
8704;SDS011;4389;41.932;25.904;2023-03-01T05:20:36;4.60;;;2.40;;
8704;SDS011;4389;41.932;25.904;2023-03-01T05:23:04;3.37;;;2.60;;
8704;SDS011;4389;41.932;25.904;2023-03-01T05:25:32;2.80;;;2.23;;
8704;SDS011;4389;41.932;25.904;2023-03-01T05:28:00;2.60;;;2.30;;
8704;SDS011;4389;41.932;25.904;2023-03-01T05:30:29;3.17;;;2.07;;
8704;SDS011;4389;41.932;25.904;2023-03-01T05:33:15;2.67;;;2.38;;
8704;SDS011;4389;41.932;25.904;2023-03-01T05:35:43;4.20;;;2.27;;
8704;SDS011;4389;41.932;25.904;2023-03-01T05:38:12;5.13;;;2.73;;
8704;SDS011;4389;41.932;25.904;2023-03-01T05:40:39;4.63;;;2.90;;
8704;SDS011;4389;41.932;25.904;2023-03-01T05:43:07;3.97;;;2.80;;
8704;SDS011;4389;41.932;25.904;2023-03-01T05:45:35;3.17;;;2.87;;
8704;SDS011;4389;41.932;25.904;2023-03-01T05:48:03;3.70;;;3.40;;
8704;SDS011;4389;41.932;25.904;2023-03-01T05:50:34;5.80;;;4.47;;
8704;SDS011;4389;41.932;25.904;2023-03-01T05:53:03;5.10;;;4.60;;
8704;SDS011;4389;41.932;25.904;2023-03-01T05:55:32;5.03;;;4.53;;
8704;SDS011;4389;41.932;25.904;2023-03-01T05:58:01;4.03;;;3.73;;
8704;SDS011;4389;41.932;25.904;2023-03-01T06:00:29;4.47;;;4.07;;
8704;SDS011;4389;41.932;25.904;2023-03-01T06:02:57;5.43;;;4.93;;
8704;SDS011;4389;41.932;25.904;2023-03-01T06:05:25;4.17;;;3.77;;
8704;SDS011;4389;41.932;25.904;2023-03-01T06:07:54;3.20;;;2.90;;
8704;SDS011;4389;41.932;25.904;2023-03-01T06:10:22;5.90;;;4.80;;
8704;SDS011;4389;41.932;25.904;2023-03-01T06:12:48;3.50;;;2.77;;
8704;SDS011;4389;41.932;25.904;2023-03-01T06:15:16;6.27;;;3.97;;
8704;SDS011;4389;41.932;25.904;2023-03-01T06:17:44;7.40;;;5.50;;
8704;SDS011;4389;41.932;25.904;2023-03-01T06:20:13;7.60;;;6.80;;
8704;SDS011;4389;41.932;25.904;2023-03-01T06:22:41;6.03;;;5.07;;
8704;SDS011;4389;41.932;25.904;2023-03-01T06:25:11;8.73;;;7.17;;
8704;SDS011;4389;41.932;25.904;2023-03-01T06:27:39;8.20;;;6.40;;
8704;SDS011;4389;41.932;25.904;2023-03-01T06:30:07;3.60;;;2.80;;
8704;SDS011;4389;41.932;25.904;2023-03-01T06:32:35;3.00;;;2.70;;
8704;SDS011;4389;41.932;25.904;2023-03-01T06:35:03;2.80;;;2.60;;
8704;SDS011;4389;41.932;25.904;2023-03-01T06:37:30;5.10;;;3.03;;
8704;SDS011;4389;41.932;25.904;2023-03-01T06:39:57;5.07;;;3.70;;
8704;SDS011;4389;41.932;25.904;2023-03-01T06:42:25;6.47;;;3.63;;
8704;SDS011;4389;41.932;25.904;2023-03-01T06:44:52;7.10;;;5.33;;
8704;SDS011;4389;41.932;25.904;2023-03-01T06:47:19;13.47;;;9.27;;
8704;SDS011;4389;41.932;25.904;2023-03-01T06:49:46;14.00;;;10.10;;
8704;SDS011;4389;41.932;25.904;2023-03-01T06:52:12;16.80;;;11.17;;
8704;SDS011;4389;41.932;25.904;2023-03-01T06:54:39;20.73;;;13.97;;
8704;SDS011;4389;41.932;25.904;2023-03-01T06:57:06;35.77;;;23.23;;
8704;SDS011;4389;41.932;25.904;2023-03-01T06:59:34;39.90;;;28.70;;
8704;SDS011;4389;41.932;25.904;2023-03-01T07:02:01;31.83;;;24.37;;
8704;SDS011;4389;41.932;25.904;2023-03-01T07:04:28;26.53;;;22.80;;
8704;SDS011;4389;41.932;25.904;2023-03-01T07:06:55;14.70;;;11.43;;
8704;SDS011;4389;41.932;25.904;2023-03-01T07:09:22;13.53;;;11.47;;
8704;SDS011;4389;41.932;25.904;2023-03-01T07:11:50;10.53;;;9.10;;
8704;SDS011;4389;41.932;25.904;2023-03-01T07:14:17;11.43;;;8.93;;
8704;SDS011;4389;41.932;25.904;2023-03-01T07:16:46;13.20;;;8.00;;
8704;SDS011;4389;41.932;25.904;2023-03-01T07:19:13;16.37;;;14.70;;
8704;SDS011;4389;41.932;25.904;2023-03-01T07:21:40;4.90;;;3.70;;
8704;SDS011;4389;41.932;25.904;2023-03-01T07:24:07;9.10;;;7.33;;
8704;SDS011;4389;41.932;25.904;2023-03-01T07:26:35;7.30;;;6.60;;
8704;SDS011;4389;41.932;25.904;2023-03-01T07:29:02;5.10;;;4.60;;
8704;SDS011;4389;41.932;25.904;2023-03-01T07:31:31;7.13;;;5.30;;
8704;SDS011;4389;41.932;25.904;2023-03-01T07:33:59;8.20;;;5.97;;
8704;SDS011;4389;41.932;25.904;2023-03-01T07:36:26;10.47;;;5.23;;
8704;SDS011;4389;41.932;25.904;2023-03-01T07:38:53;7.77;;;5.70;;
8704;SDS011;4389;41.932;25.904;2023-03-01T07:41:21;8.50;;;7.20;;
8704;SDS011;4389;41.932;25.904;2023-03-01T07:43:48;5.23;;;4.00;;
8704;SDS011;4389;41.932;25.904;2023-03-01T07:46:15;4.13;;;3.07;;
8704;SDS011;4389;41.932;25.904;2023-03-01T07:48:42;3.17;;;2.70;;
8704;SDS011;4389;41.932;25.904;2023-03-01T07:51:11;4.50;;;2.60;;
8704;SDS011;4389;41.932;25.904;2023-03-01T07:53:37;9.13;;;5.40;;
8704;SDS011;4389;41.932;25.904;2023-03-01T07:56:05;7.17;;;4.70;;
8704;SDS011;4389;41.932;25.904;2023-03-01T07:58:33;8.60;;;4.87;;
8704;SDS011;4389;41.932;25.904;2023-03-01T08:01:00;21.00;;;13.47;;
8704;SDS011;4389;41.932;25.904;2023-03-01T08:03:28;7.70;;;5.17;;
8704;SDS011;4389;41.932;25.904;2023-03-01T08:05:55;8.03;;;6.93;;
8704;SDS011;4389;41.932;25.904;2023-03-01T08:08:23;10.60;;;9.70;;
8704;SDS011;4389;41.932;25.904;2023-03-01T08:10:50;3.17;;;2.70;;
8704;SDS011;4389;41.932;25.904;2023-03-01T08:13:18;2.37;;;2.00;;
8704;SDS011;4389;41.932;25.904;2023-03-01T08:15:47;4.07;;;3.07;;
8704;SDS011;4389;41.932;25.904;2023-03-01T08:18:15;2.27;;;1.90;;
8704;SDS011;4389;41.932;25.904;2023-03-01T08:20:43;4.30;;;2.93;;
8704;SDS011;4389;41.932;25.904;2023-03-01T08:23:10;3.40;;;3.03;;
8704;SDS011;4389;41.932;25.904;2023-03-01T08:25:38;2.90;;;2.57;;
8704;SDS011;4389;41.932;25.904;2023-03-01T08:28:06;3.87;;;2.80;;
8704;SDS011;4389;41.932;25.904;2023-03-01T08:30:32;4.60;;;3.47;;
8704;SDS011;4389;41.932;25.904;2023-03-01T08:33:00;2.87;;;2.40;;
8704;SDS011;4389;41.932;25.904;2023-03-01T08:35:27;6.13;;;4.63;;
8704;SDS011;4389;41.932;25.904;2023-03-01T08:37:54;6.40;;;2.93;;
8704;SDS011;4389;41.932;25.904;2023-03-01T08:40:21;3.23;;;2.67;;
8704;SDS011;4389;41.932;25.904;2023-03-01T08:42:49;4.27;;;2.80;;
8704;SDS011;4389;41.932;25.904;2023-03-01T08:45:16;4.77;;;2.90;;
8704;SDS011;4389;41.932;25.904;2023-03-01T08:47:43;3.13;;;2.70;;
8704;SDS011;4389;41.932;25.904;2023-03-01T08:50:11;7.13;;;6.43;;
8704;SDS011;4389;41.932;25.904;2023-03-01T08:52:38;4.47;;;3.90;;
8704;SDS011;4389;41.932;25.904;2023-03-01T08:55:05;4.97;;;4.47;;
8704;SDS011;4389;41.932;25.904;2023-03-01T08:57:33;3.60;;;3.17;;
8704;SDS011;4389;41.932;25.904;2023-03-01T09:00:01;3.00;;;2.73;;
8704;SDS011;4389;41.932;25.904;2023-03-01T09:02:33;3.73;;;3.17;;
8704;SDS011;4389;41.932;25.904;2023-03-01T09:05:00;6.57;;;4.10;;
8704;SDS011;4389;41.932;25.904;2023-03-01T09:07:27;5.53;;;4.83;;
8704;SDS011;4389;41.932;25.904;2023-03-01T09:09:54;3.53;;;2.93;;
8704;SDS011;4389;41.932;25.904;2023-03-01T09:12:21;4.13;;;3.50;;
8704;SDS011;4389;41.932;25.904;2023-03-01T09:14:50;5.07;;;3.57;;
8704;SDS011;4389;41.932;25.904;2023-03-01T09:17:18;3.60;;;3.30;;
8704;SDS011;4389;41.932;25.904;2023-03-01T09:19:46;10.03;;;9.03;;
8704;SDS011;4389;41.932;25.904;2023-03-01T09:22:13;3.30;;;3.00;;
8704;SDS011;4389;41.932;25.904;2023-03-01T09:24:40;4.13;;;3.77;;
8704;SDS011;4389;41.932;25.904;2023-03-01T09:27:07;6.43;;;3.50;;
8704;SDS011;4389;41.932;25.904;2023-03-01T09:29:36;5.73;;;4.40;;
8704;SDS011;4389;41.932;25.904;2023-03-01T09:32:04;5.63;;;4.60;;
8704;SDS011;4389;41.932;25.904;2023-03-01T09:34:34;10.83;;;3.60;;
8704;SDS011;4389;41.932;25.904;2023-03-01T09:37:22;6.50;;;5.07;;
8704;SDS011;4389;41.932;25.904;2023-03-01T09:39:49;11.30;;;7.60;;
8704;SDS011;4389;41.932;25.904;2023-03-01T09:42:16;7.67;;;6.00;;
8704;SDS011;4389;41.932;25.904;2023-03-01T09:44:44;5.43;;;4.83;;
8704;SDS011;4389;41.932;25.904;2023-03-01T09:47:17;4.93;;;4.43;;
8704;SDS011;4389;41.932;25.904;2023-03-01T09:49:48;7.53;;;5.50;;
8704;SDS011;4389;41.932;25.904;2023-03-01T09:52:26;6.40;;;5.80;;
8704;SDS011;4389;41.932;25.904;2023-03-01T09:55:00;5.77;;;5.23;;
8704;SDS011;4389;41.932;25.904;2023-03-01T09:57:32;5.20;;;4.40;;
8704;SDS011;4389;41.932;25.904;2023-03-01T10:00:11;4.73;;;3.93;;
8704;SDS011;4389;41.932;25.904;2023-03-01T10:02:44;4.47;;;3.13;;
8704;SDS011;4389;41.932;25.904;2023-03-01T10:05:22;3.47;;;3.17;;
8704;SDS011;4389;41.932;25.904;2023-03-01T10:08:02;5.87;;;4.60;;
8704;SDS011;4389;41.932;25.904;2023-03-01T10:10:46;8.93;;;8.07;;
8704;SDS011;4389;41.932;25.904;2023-03-01T10:13:15;5.80;;;5.30;;
8704;SDS011;4389;41.932;25.904;2023-03-01T10:15:47;9.67;;;8.13;;
8704;SDS011;4389;41.932;25.904;2023-03-01T10:18:20;13.57;;;10.33;;
8704;SDS011;4389;41.932;25.904;2023-03-01T10:20:52;10.33;;;9.23;;
8704;SDS011;4389;41.932;25.904;2023-03-01T10:23:22;14.07;;;12.60;;
8704;SDS011;4389;41.932;25.904;2023-03-01T10:25:54;6.57;;;5.97;;
8704;SDS011;4389;41.932;25.904;2023-03-01T10:28:30;8.77;;;6.27;;
8704;SDS011;4389;41.932;25.904;2023-03-01T10:31:05;3.57;;;3.00;;
8704;SDS011;4389;41.932;25.904;2023-03-01T10:33:40;6.67;;;5.67;;
8704;SDS011;4389;41.932;25.904;2023-03-01T10:36:09;8.90;;;8.00;;
8704;SDS011;4389;41.932;25.904;2023-03-01T10:38:47;12.93;;;8.77;;
8704;SDS011;4389;41.932;25.904;2023-03-01T10:41:17;12.17;;;10.40;;
8704;SDS011;4389;41.932;25.904;2023-03-01T10:43:47;9.97;;;9.07;;
8704;SDS011;4389;41.932;25.904;2023-03-01T10:46:24;7.10;;;6.23;;
8704;SDS011;4389;41.932;25.904;2023-03-01T10:49:06;4.03;;;3.20;;
8704;SDS011;4389;41.932;25.904;2023-03-01T10:51:39;4.77;;;3.20;;
8704;SDS011;4389;41.932;25.904;2023-03-01T10:54:15;5.20;;;3.20;;
8704;SDS011;4389;41.932;25.904;2023-03-01T10:56:47;2.83;;;2.30;;
8704;SDS011;4389;41.932;25.904;2023-03-01T10:59:22;4.67;;;3.07;;
8704;SDS011;4389;41.932;25.904;2023-03-01T11:02:04;4.47;;;4.07;;
8704;SDS011;4389;41.932;25.904;2023-03-01T11:05:00;4.90;;;3.83;;
8704;SDS011;4389;41.932;25.904;2023-03-01T11:07:30;4.83;;;4.33;;
8704;SDS011;4389;41.932;25.904;2023-03-01T11:09:57;9.37;;;4.83;;
8704;SDS011;4389;41.932;25.904;2023-03-01T11:12:24;4.87;;;3.43;;
8704;SDS011;4389;41.932;25.904;2023-03-01T11:14:54;4.13;;;2.93;;
8704;SDS011;4389;41.932;25.904;2023-03-01T11:17:23;3.03;;;2.57;;
8704;SDS011;4389;41.932;25.904;2023-03-01T11:20:00;5.77;;;2.83;;
8704;SDS011;4389;41.932;25.904;2023-03-01T11:22:32;3.27;;;2.97;;
8704;SDS011;4389;41.932;25.904;2023-03-01T11:25:02;2.80;;;2.60;;
8704;SDS011;4389;41.932;25.904;2023-03-01T11:27:31;3.33;;;2.50;;
8704;SDS011;4389;41.932;25.904;2023-03-01T11:30:00;4.30;;;2.73;;
8704;SDS011;4389;41.932;25.904;2023-03-01T11:32:34;2.90;;;2.60;;
8704;SDS011;4389;41.932;25.904;2023-03-01T11:35:09;3.10;;;2.80;;
8704;SDS011;4389;41.932;25.904;2023-03-01T11:37:41;8.37;;;3.33;;
8704;SDS011;4389;41.932;25.904;2023-03-01T11:40:17;4.10;;;2.70;;
8704;SDS011;4389;41.932;25.904;2023-03-01T11:42:53;2.97;;;2.20;;
8704;SDS011;4389;41.932;25.904;2023-03-01T11:45:28;3.47;;;2.67;;
8704;SDS011;4389;41.932;25.904;2023-03-01T11:48:09;2.60;;;2.40;;
8704;SDS011;4389;41.932;25.904;2023-03-01T11:50:50;3.80;;;3.40;;
8704;SDS011;4389;41.932;25.904;2023-03-01T11:53:32;4.43;;;3.00;;
8704;SDS011;4389;41.932;25.904;2023-03-01T11:56:10;7.03;;;2.97;;
8704;SDS011;4389;41.932;25.904;2023-03-01T11:58:54;2.80;;;2.60;;
8704;SDS011;4389;41.932;25.904;2023-03-01T12:01:37;3.00;;;2.40;;
8704;SDS011;4389;41.932;25.904;2023-03-01T12:04:19;6.40;;;2.73;;
8704;SDS011;4389;41.932;25.904;2023-03-01T12:07:10;5.83;;;3.80;;
8704;SDS011;4389;41.932;25.904;2023-03-01T12:09:52;4.27;;;3.87;;
8704;SDS011;4389;41.932;25.904;2023-03-01T12:12:34;3.30;;;3.00;;
8704;SDS011;4389;41.932;25.904;2023-03-01T12:15:29;3.87;;;3.13;;
8704;SDS011;4389;41.932;25.904;2023-03-01T12:21:05;3.70;;;3.00;;
8704;SDS011;4389;41.932;25.904;2023-03-01T12:23:50;4.83;;;4.33;;
8704;SDS011;4389;41.932;25.904;2023-03-01T12:26:31;4.60;;;4.20;;
8704;SDS011;4389;41.932;25.904;2023-03-01T12:29:14;5.63;;;4.73;;
8704;SDS011;4389;41.932;25.904;2023-03-01T12:32:12;11.23;;;9.30;;
8704;SDS011;4389;41.932;25.904;2023-03-01T12:34:55;5.03;;;3.60;;
8704;SDS011;4389;41.932;25.904;2023-03-01T12:37:42;3.97;;;3.53;;
8704;SDS011;4389;41.932;25.904;2023-03-01T12:40:23;5.30;;;4.40;;
8704;SDS011;4389;41.932;25.904;2023-03-01T12:43:10;5.37;;;3.70;;
8704;SDS011;4389;41.932;25.904;2023-03-01T12:45:54;4.33;;;3.37;;
8704;SDS011;4389;41.932;25.904;2023-03-01T12:48:33;6.80;;;5.97;;
8704;SDS011;4389;41.932;25.904;2023-03-01T12:51:07;4.97;;;4.47;;
8704;SDS011;4389;41.932;25.904;2023-03-01T12:53:39;7.10;;;3.73;;
8704;SDS011;4389;41.932;25.904;2023-03-01T12:56:08;3.67;;;3.23;;
8704;SDS011;4389;41.932;25.904;2023-03-01T12:58:41;8.67;;;5.47;;
8704;SDS011;4389;41.932;25.904;2023-03-01T13:01:22;11.60;;;10.13;;
8704;SDS011;4389;41.932;25.904;2023-03-01T13:04:12;5.73;;;5.17;;
8704;SDS011;4389;41.932;25.904;2023-03-01T13:06:47;11.33;;;10.23;;
8704;SDS011;4389;41.932;25.904;2023-03-01T13:09:24;8.57;;;6.70;;
8704;SDS011;4389;41.932;25.904;2023-03-01T13:11:56;8.37;;;7.47;;
8704;SDS011;4389;41.932;25.904;2023-03-01T13:14:37;8.33;;;6.80;;
8704;SDS011;4389;41.932;25.904;2023-03-01T13:17:30;13.77;;;9.20;;
8704;SDS011;4389;41.932;25.904;2023-03-01T13:19:59;7.53;;;5.07;;
8704;SDS011;4389;41.932;25.904;2023-03-01T13:22:27;5.20;;;4.17;;
8704;SDS011;4389;41.932;25.904;2023-03-01T13:25:11;6.03;;;4.57;;
8704;SDS011;4389;41.932;25.904;2023-03-01T13:27:41;8.67;;;4.90;;
8704;SDS011;4389;41.932;25.904;2023-03-01T13:36:06;9.27;;;6.67;;
8704;SDS011;4389;41.932;25.904;2023-03-01T13:38:36;5.70;;;4.80;;
8704;SDS011;4389;41.932;25.904;2023-03-01T13:41:06;6.43;;;5.27;;
8704;SDS011;4389;41.932;25.904;2023-03-01T13:43:34;5.93;;;4.70;;
8704;SDS011;4389;41.932;25.904;2023-03-01T13:46:07;6.43;;;4.30;;
8704;SDS011;4389;41.932;25.904;2023-03-01T13:48:37;8.17;;;5.67;;
8704;SDS011;4389;41.932;25.904;2023-03-01T13:51:07;9.63;;;7.63;;
8704;SDS011;4389;41.932;25.904;2023-03-01T13:53:37;9.40;;;7.03;;
8704;SDS011;4389;41.932;25.904;2023-03-01T13:56:07;10.43;;;7.30;;
8704;SDS011;4389;41.932;25.904;2023-03-01T13:58:44;10.00;;;7.23;;
8704;SDS011;4389;41.932;25.904;2023-03-01T14:01:20;10.83;;;6.60;;
8704;SDS011;4389;41.932;25.904;2023-03-01T14:03:51;9.17;;;6.20;;
8704;SDS011;4389;41.932;25.904;2023-03-01T14:06:19;10.30;;;8.77;;
8704;SDS011;4389;41.932;25.904;2023-03-01T14:08:49;17.33;;;9.30;;
8704;SDS011;4389;41.932;25.904;2023-03-01T14:11:22;8.23;;;5.83;;
8704;SDS011;4389;41.932;25.904;2023-03-01T14:17:27;18.43;;;16.53;;
8704;SDS011;4389;41.932;25.904;2023-03-01T14:20:11;12.20;;;10.23;;
8704;SDS011;4389;41.932;25.904;2023-03-01T14:22:42;13.50;;;12.10;;
8704;SDS011;4389;41.932;25.904;2023-03-01T14:25:17;13.67;;;9.23;;
8704;SDS011;4389;41.932;25.904;2023-03-01T14:27:51;13.13;;;10.73;;
8704;SDS011;4389;41.932;25.904;2023-03-01T14:30:23;8.00;;;7.20;;
8704;SDS011;4389;41.932;25.904;2023-03-01T14:32:52;10.13;;;6.93;;
8704;SDS011;4389;41.932;25.904;2023-03-01T14:35:22;11.47;;;9.67;;
8704;SDS011;4389;41.932;25.904;2023-03-01T14:37:51;16.40;;;13.03;;
8704;SDS011;4389;41.932;25.904;2023-03-01T14:40:25;20.00;;;17.13;;
8704;SDS011;4389;41.932;25.904;2023-03-01T14:42:53;10.30;;;9.20;;
8704;SDS011;4389;41.932;25.904;2023-03-01T14:45:24;9.03;;;8.07;;
8704;SDS011;4389;41.932;25.904;2023-03-01T14:47:53;15.07;;;9.60;;
8704;SDS011;4389;41.932;25.904;2023-03-01T14:50:23;14.57;;;12.40;;
8704;SDS011;4389;41.932;25.904;2023-03-01T14:52:53;17.13;;;15.33;;
8704;SDS011;4389;41.932;25.904;2023-03-01T14:55:24;16.50;;;14.90;;
8704;SDS011;4389;41.932;25.904;2023-03-01T14:57:53;19.70;;;16.47;;
8704;SDS011;4389;41.932;25.904;2023-03-01T15:00:21;14.53;;;12.87;;
8704;SDS011;4389;41.932;25.904;2023-03-01T15:02:50;17.73;;;14.27;;
8704;SDS011;4389;41.932;25.904;2023-03-01T15:05:22;13.93;;;11.40;;
8704;SDS011;4389;41.932;25.904;2023-03-01T15:07:54;9.47;;;8.10;;
8704;SDS011;4389;41.932;25.904;2023-03-01T15:10:24;12.03;;;8.67;;
8704;SDS011;4389;41.932;25.904;2023-03-01T15:12:53;9.60;;;8.27;;
8704;SDS011;4389;41.932;25.904;2023-03-01T15:15:31;10.03;;;8.73;;
8704;SDS011;4389;41.932;25.904;2023-03-01T15:18:02;13.47;;;8.87;;
8704;SDS011;4389;41.932;25.904;2023-03-01T15:20:33;12.60;;;8.50;;
8704;SDS011;4389;41.932;25.904;2023-03-01T15:23:04;12.37;;;9.30;;
8704;SDS011;4389;41.932;25.904;2023-03-01T15:25:32;12.27;;;9.23;;
8704;SDS011;4389;41.932;25.904;2023-03-01T15:28:00;18.47;;;10.67;;
8704;SDS011;4389;41.932;25.904;2023-03-01T15:30:29;11.20;;;9.30;;